SEQU/UIO METAR and TAF weather

Enter ICAO airport designator
Station Type Date Time Source
SEQU METAR 2015/11/16 02:00 UTC NOAA

SEQU 160200Z 35005KT 6000 FEW003 SCT030 BKN300 14/13 Q1026


Station Type Date Time Source
SEQU Decoded METAR 2015/11/16 02:00 UTC NOAA

Quito / Mariscal Sucre, Ecuador (SEQU) 00-09S 078-29W 2812M
Nov 15, 2015 - 09:00 PM EST / 2015.11.16 0200 UTC
Wind: from the N (350 degrees) at 6 MPH (5 KT):0
Visibility: 3 mile(s):0
Sky conditions: mostly cloudy
Temperature: 57 F (14 C)
Dew Point: 55 F (13 C)
Relative Humidity: 93%
Pressure (altimeter): 30.30 in. Hg (1026 hPa)
ob: SEQU 160200Z 35005KT 6000 FEW003 SCT030 BKN300 14/13 Q1026
cycle: 2

Station Type Date Time Source
SEQU TAF 2019/04/03 18:57 UTC NOAA

TAF SEQU 031630Z 0318/0418 36010KT 9999 BKN030 SCT100
TEMPO 0320/0323 16008KT TSRA SCT026CB BKN030TCU BKN100
FM040000 03004KT 9999 SCT030 BKN100
TEMPO 0409/0412 00000KT 2000 BR SCT005 BKN020 BKN100
FM041200 VRB03KT 9999 SCT030 SCT100 TX21/0319Z TN12/0410Z

Example: see airport list